• Join FlightAware (Why Join?)
  • Login
  • US Flag 
06:22AM EST


 

Airport Tracker/Info


-or-


 

Live Flight TrackerFlight Track Log ✈ N978AC ✈ 27-Nov-2013 ✈ F45 - KAPF

Flight Track Log - Related Links

Times and Time Zones

All times are in EST time to prevent confusion due to time zone crossing. See the N978AC flight status page for this flight to view local times or setup timezone preferences in your user account.

Time Position Orientation Groundspeed Altitude Reporting Facility
EST Latitude Longitude Course Direction KTS MPH feet Rate Location/Type
01:27PM 26.7915 -80.3464 250° West  Level Estimated
01:28PM 26.7828 -80.3722 249° West  Level FlightAware Approximate
01:29PM 26.7741 -80.3981 249° West  Level FlightAware Approximate
01:30PM 26.7654 -80.4240 249° West  Level FlightAware Approximate
01:31PM 26.7567 -80.4498 249° West  Level FlightAware Approximate
01:32PM 26.7480 -80.4757 249° West  Level FlightAware Approximate
01:33PM 26.7393 -80.5015 249° West  Level FlightAware Approximate
01:33PM 26.6814 -80.4625 247° West 75 86 4,200  Level Miami Center
01:34PM 26.7306 -80.5274 249° West  Level FlightAware Approximate
01:34PM 26.6725 -80.4833 244° Southwest 75 86 4,100  Level Miami Center
01:35PM 26.7219 -80.5532 249° West  Level FlightAware Approximate
01:35PM 26.6633 -80.5086 248° West 80 92 4,200  Level Miami Center
01:36PM 26.7132 -80.5791 249° West  Level FlightAware Approximate
01:36PM 26.6567 -80.5269 248° West 80 92 4,200  Level Miami Center
01:37PM 26.7019 -80.6036 247° West  Level Estimated
01:37PM 26.6500 -80.5500 252° West 80 92 4,200  Level Miami Center
01:38PM 26.6408 -80.5731 246° West 80 92 4,200  Level Miami Center
01:39PM 26.6300 -80.5936 239° Southwest 75 86 4,200  Level Miami Center
01:40PM 26.6211 -80.6142 244° Southwest 86 99 4,200  Level Miami Center
01:41PM 26.6100 -80.6417 246° West 86 99 4,200  Level Miami Center
01:42PM 26.6011 -80.6647 247° West 91 105 4,200 -60 Level Miami Center
01:43PM 26.5900 -80.6897 244° Southwest 91 105 4,100 -120 Descending Miami Center
01:44PM 26.5808 -80.7128 246° West 91 105 4,000 -60 Descending Miami Center
01:45PM 26.5717 -80.7425 251° West 91 105 4,000  Level Miami Center
01:46PM 26.5650 -80.7656 252° West 85 98 4,000  Level Miami Center
01:47PM 26.5558 -80.7886 246° West 92 106 4,000  Level Miami Center
01:48PM 26.5450 -80.8114 242° Southwest 92 106 4,100 120 Climbing Miami Center
01:49PM 26.5336 -80.8389 245° Southwest 92 106 4,300 120 Climbing Miami Center
01:50PM 26.5267 -80.8619 251° West 92 106 4,400 -60 Climbing Miami Center
01:51PM 26.5178 -80.8872 249° West 92 106 4,200 -180 Descending Miami Center
01:52PM 26.5131 -80.9100 257° West 87 100 4,100 -120 Descending Miami Center
01:53PM 26.4975 -80.9350 235° Southwest 87 100 4,000 -120 Descending Miami Center
01:54PM 26.4908 -80.9558 250° West 93 107 3,900  Descending Miami Center
01:55PM 26.4817 -80.9808 248° West 88 101 4,000  Climbing Miami Center
01:56PM 26.4769 -80.9994 254° West 88 101 4,000  Level Miami Center
01:57PM 26.4658 -81.0244 244° Southwest 83 96 4,100  Climbing Miami Center
01:58PM 26.4611 -81.0453 256° West 83 96 4,100  Level Miami Center
01:59PM 26.4500 -81.0681 241° Southwest 83 96 4,100  Level Miami Center
02:00PM 26.4408 -81.0908 246° West 89 102 4,100  Level Miami Center
02:01PM 26.4319 -81.1161 249° West 89 102 4,100  Level Miami Center
02:02PM 26.4208 -81.1389 241° Southwest 89 102 4,100  Level Miami Center
02:04PM 26.4016 -81.1818 243° Southwest  Level FlightAware Approximate
02:11PM 26.3233 -81.3534 241° Southwest  Level FlightAware Approximate
02:12PM 26.3117 -81.3776 243° Southwest  Level FlightAware Approximate
02:13PM 26.3006 -81.4020 243° Southwest  Level FlightAware Approximate
02:14PM 26.2895 -81.4265 243° Southwest  Level FlightAware Approximate
02:15PM 26.2784 -81.4509 243° Southwest  Level FlightAware Approximate
02:16PM 26.2673 -81.4754 243° Southwest  Level FlightAware Approximate
02:17PM 26.2562 -81.4998 243° Southwest  Level FlightAware Approximate
02:18PM 26.2451 -81.5242 243° Southwest  Level FlightAware Approximate
02:19PM 26.2339 -81.5486 243° Southwest  Level FlightAware Approximate
02:20PM 26.2244 -81.5739 247° West  Level FlightAware Approximate
02:21PM 26.2149 -81.5991 247° West  Level FlightAware Approximate
02:22PM 26.2055 -81.6244 247° West  Level FlightAware Approximate
02:23PM 26.1960 -81.6497 247° West  Level FlightAware Approximate
02:24PM 26.1865 -81.6749 247° West  Level FlightAware Approximate
02:25PM 26.1767 -81.7000 246° West  Level FlightAware Approximate
02:26PM 26.1667 -81.7250 246° West  Level FlightAware Approximate
02:27PM 26.1567 -81.7500 246° West  Level FlightAware Approximate
02:28PM 26.1500 -81.7667 246° West  Level FlightAware Approximate
02:29PM 26.1524 -81.7756 246° West  Level Estimated
02:30PM 26.1524 -81.7756 246° West  Level Estimated
02:31PM 26.1524 -81.7756 246° West  Level Estimated
02:32PM 26.1524 -81.7756 246° West  Level Estimated
02:33PM 26.1524 -81.7756 246° West  Level Estimated
02:34PM 26.1524 -81.7756 246° West  Level Estimated
02:35PM 26.1524 -81.7756 246° West  Level Estimated
02:36PM 26.1524 -81.7756 246° West  Level Estimated
02:37PM 26.1524 -81.7756 246° West  Level Estimated
02:38PM 26.1524 -81.7756 246° West  Level Estimated
02:39PM 26.1524 -81.7756 246° West  Level Estimated
02:40PM 26.1524 -81.7756 246° West  Level Estimated
02:41PM 26.1524 -81.7756 246° West  Level Estimated
02:42PM 26.1524 -81.7756 246° West  Level Estimated